Time;durP1;ratioP1;P1;durP2;ratioP2;P2;SDS_P1;SDS_P2;PMS_P1;PMS_P2;Temp;Humidity;BMP_temperature;BMP_pressure;BME280_temperature;BME280_humidity;BME280_pressure;Samples;Min_cycle;Max_cycle;Signal;HPM_P1;HPM_P2
2022/05/31 00:00:20;;;;;;;6.73;6.10;;;;;;;24.44;43.77;95075.00;6208340;28;104316;-62
2022/05/31 00:03:23;;;;;;;6.03;5.30;;;;;;;24.42;43.67;95069.19;6207459;28;102825;-63
2022/05/31 00:06:27;;;;;;;6.40;5.90;;;;;;;24.44;43.88;95077.69;6186629;28;104447;-62
2022/05/31 00:09:31;;;;;;;7.63;6.77;;;;;;;24.46;44.01;95075.47;6208870;28;103830;-62
2022/05/31 00:12:35;;;;;;;6.60;6.00;;;;;;;24.46;43.91;95066.66;6207660;28;103141;-62
2022/05/31 00:15:38;;;;;;;9.33;6.93;;;;;;;24.43;43.94;95065.41;6209568;28;104015;-62
2022/05/31 00:18:41;;;;;;;5.60;5.10;;;;;;;24.44;43.75;95061.63;6195708;28;103281;-62
2022/05/31 00:21:48;;;;;;;6.47;5.10;;;;;;;24.43;43.65;95061.97;6198443;28;103824;-62
2022/05/31 00:24:53;;;;;;;5.70;5.20;;;;;;;24.42;43.33;95065.75;6205772;28;103126;-62
2022/05/31 00:27:56;;;;;;;8.40;5.80;;;;;;;24.43;43.60;95062.75;6202486;27;103071;-62
2022/05/31 00:30:59;;;;;;;5.63;5.17;;;;;;;24.41;43.83;95072.19;6201698;28;103388;-62
2022/05/31 00:34:03;;;;;;;5.53;5.03;;;;;;;24.41;43.43;95066.84;6207647;28;104094;-62
2022/05/31 00:37:07;;;;;;;7.47;6.23;;;;;;;24.43;43.45;95073.44;6207249;28;104305;-62
2022/05/31 00:40:13;;;;;;;6.30;5.67;;;;;;;24.41;43.47;95062.28;6199238;28;102796;-62
2022/05/31 00:43:22;;;;;;;6.00;5.40;;;;;;;24.42;43.29;95063.06;6208939;28;104033;-62
2022/05/31 00:46:29;;;;;;;5.77;5.20;;;;;;;24.36;43.12;95067.81;6205393;28;103214;-62
2022/05/31 00:49:36;;;;;;;5.60;5.10;;;;;;;24.33;43.57;95064.97;6205830;28;103308;-62
2022/05/31 00:52:44;;;;;;;5.40;4.90;;;;;;;24.33;43.26;95075.66;6180364;28;103170;-62
2022/05/31 00:55:52;;;;;;;5.40;4.90;;;;;;;24.36;43.41;95081.19;6206738;28;102996;-62
2022/05/31 00:59:01;;;;;;;7.03;4.97;;;;;;;24.40;43.19;95082.13;6209591;28;104175;-62
2022/05/31 01:02:06;;;;;;;6.40;5.90;;;;;;;24.39;43.29;95079.75;6203340;28;104254;-62
2022/05/31 01:05:11;;;;;;;5.67;5.03;;;;;;;24.37;43.23;95084.66;6201386;28;103447;-62
2022/05/31 01:08:15;;;;;;;5.87;5.37;;;;;;;24.34;43.34;95077.25;6208810;28;104286;-62
2022/05/31 01:11:22;;;;;;;6.07;5.47;;;;;;;24.35;43.06;95079.59;6209046;28;104358;-62
2022/05/31 01:14:26;;;;;;;5.57;5.07;;;;;;;24.36;43.12;95086.53;6199231;28;103043;-62
2022/05/31 01:17:29;;;;;;;6.63;5.20;;;;;;;24.37;43.15;95088.09;6208670;28;103270;-62
2022/05/31 01:20:33;;;;;;;5.30;4.80;;;;;;;24.36;43.00;95086.53;6205810;28;103301;-62
2022/05/31 01:23:42;;;;;;;5.80;5.27;;;;;;;24.35;42.91;95079.59;6205347;28;104433;-61
2022/05/31 01:26:51;;;;;;;5.90;5.40;;;;;;;24.37;43.12;95082.75;6197155;28;103215;-61
2022/05/31 01:29:55;;;;;;;7.03;6.10;;;;;;;24.37;42.89;95090.78;6206014;28;104199;-60
2022/05/31 01:33:03;;;;;;;5.63;5.10;;;;;;;24.36;43.39;95091.88;6207829;28;103338;-61
2022/05/31 01:36:10;;;;;;;6.47;5.40;;;;;;;24.34;43.17;95094.06;6193353;28;103046;-61
2022/05/31 01:39:19;;;;;;;7.10;5.13;;;;;;;24.25;43.25;95090.66;6212056;28;104001;-61
2022/05/31 01:42:31;;;;;;;5.50;4.97;;;;;;;24.21;43.41;95079.03;6212519;28;103228;-61
2022/05/31 01:45:38;;;;;;;8.17;4.97;;;;;;;24.23;43.45;95086.72;6208847;28;103230;-61
2022/05/31 01:48:42;;;;;;;6.63;5.27;;;;;;;24.26;43.30;95080.72;6202707;28;105048;-61
2022/05/31 01:51:47;;;;;;;5.57;5.00;;;;;;;24.26;43.33;95086.88;6210125;28;103116;-61
2022/05/31 01:54:52;;;;;;;5.70;5.20;;;;;;;24.23;43.33;95084.06;6198585;28;104739;-61
2022/05/31 01:57:59;;;;;;;5.30;4.90;;;;;;;24.21;43.53;95089.72;6211159;28;102958;-61
2022/05/31 02:01:03;;;;;;;8.83;5.13;;;;;;;24.13;43.49;95085.16;6201276;28;104381;-61
2022/05/31 02:04:07;;;;;;;6.13;5.53;;;;;;;24.10;43.68;95083.91;6208637;28;104262;-61
2022/05/31 02:07:15;;;;;;;5.50;5.00;;;;;;;24.08;43.69;95086.13;6210761;28;103503;-60
2022/05/31 02:10:18;;;;;;;5.50;5.00;;;;;;;24.08;43.38;95085.34;6201117;28;104251;-61
2022/05/31 02:13:21;;;;;;;5.10;4.70;;;;;;;24.08;43.46;95088.00;6187540;28;103026;-61
2022/05/31 02:16:24;;;;;;;5.27;4.77;;;;;;;24.07;43.73;95091.78;6197136;28;103576;-61
2022/05/31 02:19:28;;;;;;;6.23;5.17;;;;;;;24.07;43.80;95094.47;6209100;28;103176;-61
2022/05/31 02:22:33;;;;;;;5.70;5.20;;;;;;;24.02;44.08;95087.38;6201560;28;103544;-61
2022/05/31 02:25:37;;;;;;;5.53;4.60;;;;;;;24.00;44.01;95088.78;6211644;28;104080;-61
2022/05/31 02:28:40;;;;;;;5.70;4.90;;;;;;;24.03;43.53;95088.19;6211959;28;103478;-61
2022/05/31 02:31:43;;;;;;;5.50;5.00;;;;;;;23.96;44.24;95093.97;6209119;28;104229;-61
2022/05/31 02:34:48;;;;;;;5.63;5.13;;;;;;;23.91;44.20;95091.47;6198232;28;104233;-61
2022/05/31 02:37:55;;;;;;;5.80;5.23;;;;;;;24.00;43.48;95092.25;6211201;28;103254;-61
2022/05/31 02:40:59;;;;;;;5.37;4.83;;;;;;;24.09;43.75;95089.56;6211482;28;104011;-61
2022/05/31 02:44:02;;;;;;;4.90;4.40;;;;;;;24.12;43.71;95091.59;6203183;28;103350;-61
2022/05/31 02:47:06;;;;;;;5.50;4.90;;;;;;;24.08;43.77;95091.47;6205731;28;104101;-61
2022/05/31 02:50:10;;;;;;;4.70;4.30;;;;;;;24.13;43.66;95087.84;6209100;28;104448;-61
2022/05/31 02:53:15;;;;;;;5.97;5.03;;;;;;;24.09;43.54;95100.28;6210305;28;103300;-61
2022/05/31 02:56:18;;;;;;;5.23;4.80;;;;;;;24.06;43.30;95091.00;6199981;28;103161;-61
2022/05/31 02:59:22;;;;;;;5.57;5.07;;;;;;;23.97;43.61;95089.41;6210428;28;104423;-61
2022/05/31 03:02:25;;;;;;;8.83;4.70;;;;;;;23.93;43.97;95104.50;6207267;28;104549;-61
2022/05/31 03:05:28;;;;;;;7.27;5.17;;;;;;;23.45;45.14;95108.88;6209335;28;103494;-61
2022/05/31 03:08:33;;;;;;;8.03;5.90;;;;;;;23.57;44.85;95108.28;6199636;28;103270;-61
2022/05/31 03:11:41;;;;;;;5.63;5.13;;;;;;;23.85;44.19;95108.72;6210425;28;103140;-61
2022/05/31 03:14:50;;;;;;;7.20;6.50;;;;;;;23.99;44.18;95113.91;6209342;28;103084;-62
2022/05/31 03:17:59;;;;;;;12.33;11.10;;;;;;;24.10;44.22;95123.22;6182125;28;102817;-61
2022/05/31 03:21:07;;;;;;;12.63;11.33;;;;;;;24.14;44.10;95126.84;6187027;28;103195;-61
2022/05/31 03:24:17;;;;;;;10.33;9.27;;;;;;;24.18;44.42;95120.53;6203185;28;104148;-61
2022/05/31 03:27:20;;;;;;;9.73;7.63;;;;;;;24.21;44.41;95119.13;6197307;28;104626;-61
2022/05/31 03:30:24;;;;;;;9.60;8.60;;;;;;;24.21;44.47;95121.81;6192927;28;104132;-61
2022/05/31 03:33:27;;;;;;;8.47;7.63;;;;;;;24.27;47.72;95128.56;6200667;28;103315;-63
2022/05/31 03:36:31;;;;;;;9.43;8.07;;;;;;;24.29;48.09;95129.00;6188274;28;104358;-62
2022/05/31 03:39:35;;;;;;;18.10;16.50;;;;;;;24.29;46.42;95131.69;6194258;28;103418;-62
2022/05/31 03:42:38;;;;;;;28.50;26.07;;;;;;;24.34;46.17;95136.88;6192226;28;104058;-62
2022/05/31 03:45:43;;;;;;;29.27;26.50;;;;;;;24.40;44.62;95140.19;6191452;28;104642;-64
2022/05/31 03:48:46;;;;;;;21.30;19.17;;;;;;;24.44;45.76;95139.22;6196899;28;103120;-62
2022/05/31 03:51:50;;;;;;;17.67;15.97;;;;;;;24.49;45.44;95146.28;6188458;28;104093;-62
2022/05/31 03:54:54;;;;;;;17.47;15.40;;;;;;;24.55;46.01;95154.94;6191421;28;103523;-61
2022/05/31 03:57:57;;;;;;;22.17;14.93;;;;;;;24.46;45.81;95154.94;6206868;28;103144;-62
2022/05/31 04:01:01;;;;;;;15.90;14.10;;;;;;;24.54;46.47;95148.03;6206863;28;103557;-61
2022/05/31 04:04:04;;;;;;;15.50;13.83;;;;;;;24.55;47.79;95147.69;6198173;28;103209;-61
2022/05/31 04:07:07;;;;;;;18.13;12.83;;;;;;;24.46;45.96;95150.38;6204522;28;105157;-61
2022/05/31 04:10:12;;;;;;;14.13;11.10;;;;;;;24.56;46.44;95157.28;6187266;28;103263;-61
2022/05/31 04:13:16;;;;;;;11.10;9.57;;;;;;;24.48;47.79;95155.41;6201302;28;103199;-61
2022/05/31 04:16:19;;;;;;;11.63;9.47;;;;;;;24.54;46.13;95153.38;6186608;28;105091;-61
2022/05/31 04:19:25;;;;;;;10.87;9.87;;;;;;;24.58;45.79;95154.31;6200284;28;103363;-61
2022/05/31 04:22:29;;;;;;;12.17;11.03;;;;;;;24.28;46.05;95161.44;6206631;28;105339;-61
2022/05/31 04:25:33;;;;;;;12.53;9.50;;;;;;;24.08;46.35;95169.00;6206897;28;103131;-61
2022/05/31 04:28:36;;;;;;;12.80;7.90;;;;;;;24.08;46.06;95169.00;6180706;28;104144;-61
2022/05/31 04:31:44;;;;;;;8.33;7.53;;;;;;;24.03;45.91;95157.69;6180977;28;103473;-60
2022/05/31 04:34:48;;;;;;;7.87;7.00;;;;;;;24.01;46.54;95159.88;6182068;28;103148;-60
2022/05/31 04:37:51;;;;;;;8.23;7.40;;;;;;;24.10;45.93;95158.78;6171534;28;103107;-61
2022/05/31 04:40:55;;;;;;;7.17;6.47;;;;;;;24.12;45.71;95161.13;6181646;28;102825;-61
2022/05/31 04:44:00;;;;;;;11.17;6.23;;;;;;;24.14;45.91;95170.41;6182126;28;103309;-60
2022/05/31 04:47:05;;;;;;;8.47;7.23;;;;;;;24.16;45.70;95162.84;6185028;28;103778;-61
2022/05/31 04:50:09;;;;;;;8.10;7.13;;;;;;;24.18;45.66;95165.97;6173199;28;102837;-61
2022/05/31 04:53:12;;;;;;;13.20;6.50;;;;;;;24.16;46.09;95175.44;6184363;28;104000;-61
2022/05/31 04:56:19;;;;;;;10.33;6.73;;;;;;;24.15;46.05;95173.84;6183558;28;103160;-60
2022/05/31 04:59:24;;;;;;;8.43;6.63;;;;;;;24.18;46.02;95171.34;6184673;28;103031;-61
2022/05/31 05:02:27;;;;;;;7.13;6.43;;;;;;;24.23;45.94;95175.75;6172952;28;102987;-60
2022/05/31 05:05:33;;;;;;;9.23;6.23;;;;;;;24.28;46.17;95186.28;6186064;28;104166;-60
2022/05/31 05:08:37;;;;;;;6.90;6.20;;;;;;;24.30;45.91;95189.44;6187864;28;106433;-60
2022/05/31 05:11:42;;;;;;;7.30;6.70;;;;;;;24.27;45.85;95192.75;6181792;28;103420;-60
2022/05/31 05:14:45;;;;;;;7.07;6.47;;;;;;;24.29;46.13;95187.84;6187797;28;103213;-60
2022/05/31 05:17:48;;;;;;;7.97;6.80;;;;;;;24.30;46.32;95185.97;6188202;28;102960;-60
2022/05/31 05:20:51;;;;;;;7.27;6.60;;;;;;;24.30;46.49;95188.63;6188582;28;103223;-60
2022/05/31 05:23:55;;;;;;;6.93;6.33;;;;;;;24.28;46.30;95194.31;6178137;28;104234;-61
2022/05/31 05:26:59;;;;;;;15.10;6.97;;;;;;;24.25;46.65;95192.28;6187537;28;102710;-61
2022/05/31 05:33:29;;;;;;;8.17;6.93;;;;;;;24.34;46.77;95190.34;6163101;28;103131;-60
2022/05/31 05:36:33;;;;;;;7.77;6.40;;;;;;;24.39;46.71;95187.53;6178421;28;104147;-60
2022/05/31 05:39:36;;;;;;;7.90;6.97;;;;;;;24.41;46.71;95185.34;6187487;28;103229;-61
2022/05/31 05:42:45;;;;;;;9.93;6.83;;;;;;;24.45;46.77;95196.97;6188641;28;104726;-61
2022/05/31 05:45:48;;;;;;;10.90;6.50;;;;;;;24.52;46.61;95191.13;6178418;28;102825;-61
2022/05/31 05:48:52;;;;;;;7.17;6.50;;;;;;;24.59;46.39;95198.69;6208540;28;102951;-61
2022/05/31 05:51:59;;;;;;;7.20;6.33;;;;;;;24.64;45.92;95193.16;6212502;28;104289;-61
2022/05/31 05:55:02;;;;;;;6.83;6.00;;;;;;;24.69;46.23;95201.81;6212412;28;104984;-61
2022/05/31 05:58:08;;;;;;;9.37;6.70;;;;;;;24.77;46.04;95193.00;6201436;28;103210;-61
2022/05/31 06:01:17;;;;;;;14.40;7.30;;;;;;;24.87;48.34;95199.13;6212135;28;103405;-61
2022/05/31 06:04:24;;;;;;;12.70;7.70;;;;;;;24.90;49.76;95195.81;6212619;28;102994;-61
2022/05/31 06:07:31;;;;;;;11.37;7.37;;;;;;;24.96;49.40;95197.97;6212220;28;104094;-61
2022/05/31 06:10:38;;;;;;;11.93;7.70;;;;;;;24.97;49.10;95194.19;6202471;28;105134;-63
2022/05/31 06:13:49;;;;;;;10.07;7.90;;;;;;;25.00;49.07;95198.91;6212151;28;103219;-61
2022/05/31 06:16:58;;;;;;;11.23;7.00;;;;;;;25.07;48.97;95201.88;6210772;28;104354;-60
2022/05/31 06:20:04;;;;;;;10.53;7.40;;;;;;;25.12;48.93;95206.28;6202476;28;103590;-60
2022/05/31 06:23:08;;;;;;;7.90;6.90;;;;;;;25.15;48.39;95204.84;6211458;28;104059;-61
2022/05/31 06:26:12;;;;;;;12.67;6.77;;;;;;;25.17;48.24;95203.41;6211650;28;102972;-61
2022/05/31 06:29:17;;;;;;;8.33;7.47;;;;;;;25.20;48.08;95204.66;6210818;28;104345;-61
2022/05/31 06:32:20;;;;;;;7.30;6.60;;;;;;;25.21;48.07;95192.88;6201291;28;103500;-61
2022/05/31 06:35:29;;;;;;;10.20;7.50;;;;;;;25.25;47.96;95188.44;6212293;28;104379;-61
2022/05/31 06:38:32;;;;;;;7.87;7.17;;;;;;;25.28;47.55;95191.25;6211480;28;103554;-61
2022/05/31 06:41:35;;;;;;;8.17;7.10;;;;;;;25.30;47.77;95188.25;6211541;28;102819;-61
2022/05/31 06:44:42;;;;;;;7.73;6.87;;;;;;;25.30;47.50;95190.91;6201123;28;104894;-61
2022/05/31 06:47:45;;;;;;;10.03;7.47;;;;;;;25.36;47.52;95189.66;6199267;28;102784;-61
2022/05/31 06:50:48;;;;;;;10.27;6.93;;;;;;;25.41;47.39;95178.75;6187616;28;104143;-61
2022/05/31 06:57:14;;;;;;;10.40;6.70;;;;;;;25.46;47.06;95186.63;6186532;28;104153;-61
2022/05/31 07:00:21;;;;;;;8.70;6.97;;;;;;;25.46;46.61;95189.28;6185382;28;104321;-61
2022/05/31 07:03:24;;;;;;;11.20;6.50;;;;;;;25.47;46.35;95182.03;6186428;28;103079;-61
2022/05/31 07:06:28;;;;;;;9.00;6.50;;;;;;;25.55;46.26;95184.69;6175062;28;102964;-60
2022/05/31 07:09:31;;;;;;;8.90;6.77;;;;;;;25.63;46.46;95180.38;6185695;28;103120;-61
2022/05/31 07:12:35;;;;;;;8.83;7.43;;;;;;;25.66;46.78;95175.13;6186757;28;104473;-61
2022/05/31 07:15:40;;;;;;;7.00;6.40;;;;;;;25.66;46.78;95182.38;6186202;28;104046;-61
2022/05/31 07:19:03;;;;;;;7.63;6.90;;;;;;;25.67;46.26;95182.06;6180249;28;105712;-61
2022/05/31 07:22:06;;;;;;;8.87;6.60;;;;;;;25.67;46.19;95186.63;6186531;28;104038;-61
2022/05/31 07:25:10;;;;;;;7.20;6.43;;;;;;;25.70;46.29;95186.00;6186548;28;104219;-61
2022/05/31 07:28:13;;;;;;;8.30;7.13;;;;;;;25.71;46.42;95187.59;6176003;28;103330;-61
2022/05/31 07:31:18;;;;;;;8.70;7.07;;;;;;;25.74;45.80;95191.50;6184908;28;104197;-61
2022/05/31 07:34:23;;;;;;;8.13;7.40;;;;;;;25.77;46.10;95183.59;6185605;28;103035;-61
2022/05/31 07:37:26;;;;;;;7.80;7.00;;;;;;;25.79;45.91;95188.63;6185548;28;103326;-61
2022/05/31 07:40:29;;;;;;;7.73;6.90;;;;;;;25.82;46.09;95182.59;6175693;28;103472;-61
2022/05/31 07:43:32;;;;;;;8.13;7.43;;;;;;;25.82;45.71;95186.06;6185619;28;103666;-61
2022/05/31 07:46:38;;;;;;;8.90;8.07;;;;;;;25.86;45.61;95176.25;6188551;28;102945;-62
2022/05/31 07:49:41;;;;;;;9.57;8.63;;;;;;;25.90;45.72;95168.38;6210405;28;103645;-62
2022/05/31 07:52:44;;;;;;;10.17;8.90;;;;;;;25.91;45.75;95172.63;6201390;28;104481;-61
2022/05/31 07:55:54;;;;;;;12.27;8.03;;;;;;;25.92;46.01;95168.81;6209841;28;103288;-61
2022/05/31 07:58:57;;;;;;;9.53;8.00;;;;;;;25.96;45.69;95172.41;6209586;28;103146;-61
2022/05/31 08:02:03;;;;;;;10.23;7.83;;;;;;;26.05;46.09;95170.50;6201537;28;103104;-62
2022/05/31 08:05:08;;;;;;;10.33;8.20;;;;;;;26.07;45.88;95162.91;6209605;28;104456;-62
2022/05/31 08:08:11;;;;;;;8.40;7.57;;;;;;;26.08;45.81;95169.06;6209881;28;103207;-62
2022/05/31 08:11:35;;;;;;;11.90;7.53;;;;;;;26.09;45.38;95168.72;6210294;28;103035;-62
2022/05/31 08:14:39;;;;;;;8.70;7.90;;;;;;;26.11;45.59;95163.03;6198724;28;103024;-62
2022/05/31 08:17:46;;;;;;;8.47;7.40;;;;;;;26.12;45.35;95169.94;6209967;28;103013;-62
2022/05/31 08:20:49;;;;;;;8.03;7.23;;;;;;;26.15;45.32;95170.06;6209511;28;103251;-62
2022/05/31 08:23:52;;;;;;;8.70;7.83;;;;;;;26.18;45.15;95166.72;6209924;28;103378;-62
2022/05/31 08:27:00;;;;;;;8.57;7.83;;;;;;;26.17;45.43;95157.13;6201169;28;103143;-61
2022/05/31 08:30:05;;;;;;;8.77;7.97;;;;;;;26.10;45.65;95161.44;6208658;28;103126;-61
2022/05/31 08:33:10;;;;;;;9.20;8.30;;;;;;;26.03;45.16;95159.28;6209542;28;104190;-61
2022/05/31 08:36:13;;;;;;;9.93;8.60;;;;;;;26.06;45.31;95163.22;6199273;28;104037;-62
2022/05/31 08:39:16;;;;;;;9.80;8.30;;;;;;;26.06;45.70;95155.19;6209156;28;103101;-61
2022/05/31 08:42:22;;;;;;;8.47;7.60;;;;;;;26.04;45.21;95157.38;6212811;28;103465;-61
2022/05/31 08:45:33;;;;;;;10.23;7.80;;;;;;;26.10;45.29;95150.72;6213611;28;103284;-61
2022/05/31 08:48:48;;;;;;;10.00;7.70;;;;;;;26.14;45.16;95143.59;6185065;28;104044;-62
2022/05/31 08:52:03;;;;;;;8.83;7.77;;;;;;;26.12;45.13;95143.91;6188066;28;103147;-62
2022/05/31 08:58:41;;;;;;;8.37;7.47;;;;;;;26.14;44.90;95138.22;6182604;28;103480;-61
2022/05/31 09:01:51;;;;;;;10.57;6.93;;;;;;;26.13;44.96;95139.34;6185344;28;104273;-61
2022/05/31 09:05:04;;;;;;;8.30;7.40;;;;;;;26.10;45.18;95135.41;6188033;28;103336;-62
2022/05/31 09:08:13;;;;;;;10.70;7.60;;;;;;;26.05;44.98;95132.94;6189038;28;104042;-61
2022/05/31 09:11:20;;;;;;;9.00;7.20;;;;;;;26.04;45.25;95141.28;6177348;28;103188;-61
2022/05/31 09:14:32;;;;;;;10.37;8.07;;;;;;;25.96;45.04;95130.28;6188164;28;103243;-62
2022/05/31 09:17:45;;;;;;;9.27;8.27;;;;;;;25.96;44.86;95124.16;6188462;28;103552;-62
2022/05/31 09:20:54;;;;;;;9.63;8.57;;;;;;;26.03;44.99;95127.09;6185691;28;103220;-62
2022/05/31 09:23:59;;;;;;;12.13;7.77;;;;;;;26.08;44.88;95123.44;6183475;28;104166;-62
2022/05/31 09:27:08;;;;;;;8.33;7.50;;;;;;;26.07;44.84;95125.34;6188672;28;104184;-61
2022/05/31 09:30:18;;;;;;;9.40;8.50;;;;;;;26.03;44.59;95124.41;6188269;28;103109;-61
2022/05/31 09:33:30;;;;;;;8.63;7.83;;;;;;;26.03;44.85;95124.41;6177707;28;104086;-61
2022/05/31 09:36:43;;;;;;;8.50;7.70;;;;;;;26.06;44.17;95113.06;6186675;28;103278;-62
2022/05/31 09:40:01;;;;;;;8.40;7.70;;;;;;;26.01;44.82;95115.91;6188354;28;104209;-61
2022/05/31 09:43:12;;;;;;;7.93;7.23;;;;;;;26.00;44.31;95109.00;6187740;28;103122;-62
2022/05/31 09:46:25;;;;;;;10.00;7.50;;;;;;;26.03;44.59;95111.00;6177455;28;103947;-61
2022/05/31 09:49:36;;;;;;;8.53;7.80;;;;;;;26.01;45.11;95107.09;6212638;28;103405;-61
2022/05/31 09:52:43;;;;;;;10.37;7.90;;;;;;;25.96;44.79;95108.06;6212702;28;103148;-61
2022/05/31 09:59:11;;;;;;;9.20;8.30;;;;;;;25.89;45.22;95113.97;6212926;28;103253;-62
2022/05/31 10:02:29;;;;;;;11.80;8.90;;;;;;;26.17;44.73;95102.69;6212302;28;103098;-66
2022/05/31 10:05:34;;;;;;;8.70;8.00;;;;;;;26.01;44.69;95104.41;6212484;28;102996;-64
2022/05/31 10:08:39;;;;;;;10.07;9.03;;;;;;;25.98;44.61;95106.59;6201086;28;103274;-64
2022/05/31 10:11:45;;;;;;;9.17;8.37;;;;;;;25.97;44.93;95101.56;6211811;28;103183;-63
2022/05/31 10:14:51;;;;;;;10.37;8.50;;;;;;;25.80;45.06;95085.63;6212874;28;103992;-64
2022/05/31 10:18:04;;;;;;;9.83;8.90;;;;;;;25.86;44.69;95108.44;6207166;28;103185;-63
2022/05/31 10:21:09;;;;;;;10.70;8.63;;;;;;;25.84;44.42;95099.94;6207794;28;103265;-63
2022/05/31 10:24:19;;;;;;;9.07;8.27;;;;;;;25.84;44.11;95094.59;6212773;28;104235;-64
2022/05/31 10:27:27;;;;;;;9.63;8.73;;;;;;;25.82;44.32;95096.81;6212081;28;103022;-63
2022/05/31 10:30:36;;;;;;;10.13;8.93;;;;;;;25.78;44.11;95087.88;6202062;28;104071;-63
2022/05/31 10:33:39;;;;;;;10.93;9.87;;;;;;;25.76;44.50;95090.09;6211939;28;103250;-64
2022/05/31 10:36:51;;;;;;;9.67;8.77;;;;;;;25.74;44.35;95079.69;6212287;28;102889;-63
2022/05/31 10:40:05;;;;;;;11.07;9.90;;;;;;;25.76;43.91;95085.50;6211335;28;104679;-63
2022/05/31 10:43:24;;;;;;;10.00;9.00;;;;;;;25.77;44.24;95076.34;6201585;28;103889;-63
2022/05/31 10:46:30;;;;;;;10.17;9.17;;;;;;;25.74;43.96;95068.97;6210096;28;104281;-63
2022/05/31 10:49:35;;;;;;;11.57;8.33;;;;;;;25.74;43.83;95068.19;6186860;28;102675;-62
2022/05/31 10:52:49;;;;;;;9.07;8.17;;;;;;;25.84;43.78;95062.41;6176712;28;104662;-63
2022/05/31 10:55:59;;;;;;;9.00;7.57;;;;;;;25.90;43.93;95058.44;6186604;28;102974;-64
2022/05/31 10:59:06;;;;;;;9.03;7.70;;;;;;;25.95;44.01;95050.19;6187193;28;103383;-64
2022/05/31 11:02:33;;;;;;;8.90;8.20;;;;;;;25.95;43.86;95055.53;6186967;28;103169;-64
2022/05/31 11:05:48;;;;;;;8.90;8.00;;;;;;;25.94;43.65;95045.94;6174504;28;103127;-65
2022/05/31 11:12:38;;;;;;;9.63;8.77;;;;;;;25.86;43.74;95017.28;6185864;28;104219;-64
2022/05/31 11:15:50;;;;;;;10.10;9.10;;;;;;;25.81;44.13;95017.50;6176847;28;103347;-64
2022/05/31 11:19:07;;;;;;;11.17;9.47;;;;;;;25.94;43.96;95029.84;6187063;28;105925;-62
2022/05/31 11:22:26;;;;;;;11.00;9.97;;;;;;;25.81;43.92;95020.19;6186351;28;103355;-63
2022/05/31 11:25:47;;;;;;;12.13;10.97;;;;;;;25.79;44.14;95025.09;6184384;28;103182;-64
2022/05/31 11:29:40;;;;;;;12.03;10.97;;;;;;;25.80;44.06;95023.97;6182752;28;104349;-63
2022/05/31 11:33:03;;;;;;;11.87;10.87;;;;;;;25.68;44.04;94997.91;6186387;28;105561;-64
2022/05/31 11:36:18;;;;;;;12.23;11.03;;;;;;;25.77;44.23;95012.03;6186801;28;104464;-63
2022/05/31 11:39:42;;;;;;;13.60;12.40;;;;;;;25.73;43.94;95008.44;6176285;28;104237;-63
2022/05/31 11:43:14;;;;;;;13.90;12.47;;;;;;;25.73;43.63;95015.69;6185663;28;102975;-63
2022/05/31 11:46:30;;;;;;;11.90;10.77;;;;;;;25.72;43.72;95008.78;6185428;28;103090;-63
2022/05/31 11:49:38;;;;;;;12.40;11.20;;;;;;;25.71;43.65;95001.81;6175271;28;103074;-63
2022/05/31 11:52:55;;;;;;;12.73;11.50;;;;;;;25.66;43.60;94998.22;6186668;28;102866;-63
2022/05/31 11:56:03;;;;;;;13.83;12.63;;;;;;;25.68;43.60;94992.53;6186018;28;104273;-64
2022/05/31 11:59:13;;;;;;;13.63;12.53;;;;;;;25.69;43.74;94997.56;6185570;28;103293;-62
2022/05/31 12:02:34;;;;;;;15.20;13.97;;;;;;;25.78;44.22;94991.34;6174276;28;103414;-63
2022/05/31 12:05:43;;;;;;;12.80;11.73;;;;;;;25.82;43.98;94989.56;6185572;28;103550;-63
2022/05/31 12:08:54;;;;;;;13.63;12.33;;;;;;;25.82;44.23;94993.03;6185149;28;103102;-63
2022/05/31 12:12:03;;;;;;;16.43;14.93;;;;;;;25.80;44.18;94991.81;6175423;28;103180;-64
2022/05/31 12:15:11;;;;;;;17.40;16.00;;;;;;;25.75;43.80;94989.34;6184528;28;104008;-65
2022/05/31 12:18:23;;;;;;;20.90;19.20;;;;;;;25.71;43.98;94983.88;6184435;28;105905;-63
2022/05/31 12:21:35;;;;;;;19.00;17.50;;;;;;;25.71;43.73;94983.06;6185123;28;103068;-63
2022/05/31 12:24:43;;;;;;;20.00;18.30;;;;;;;25.71;43.72;94977.69;6173737;28;103383;-63
2022/05/31 12:27:52;;;;;;;18.87;17.37;;;;;;;25.68;43.56;94981.81;6185617;28;103356;-63
2022/05/31 12:31:02;;;;;;;20.23;18.63;;;;;;;25.66;43.32;94976.00;6185445;28;103099;-63
2022/05/31 12:34:40;;;;;;;22.27;20.27;;;;;;;25.64;43.21;94976.34;6179148;28;103158;-66
2022/05/31 12:38:06;;;;;;;22.00;20.10;;;;;;;25.66;43.14;94965.28;6185351;28;103746;-63
2022/05/31 12:41:09;;;;;;;21.80;19.93;;;;;;;25.68;42.73;94966.53;6185662;28;104187;-63
2022/05/31 12:44:15;;;;;;;21.80;20.00;;;;;;;25.59;43.02;94955.13;6184932;28;103169;-64
2022/05/31 12:47:28;;;;;;;20.30;18.60;;;;;;;25.64;42.69;94962.94;6183404;28;103900;-63
2022/05/31 12:51:20;;;;;;;20.67;18.90;;;;;;;25.65;42.60;94964.50;6209492;28;106451;-63
2022/05/31 12:54:45;;;;;;;18.90;17.30;;;;;;;25.67;42.88;94962.28;6174281;28;103345;-62
2022/05/31 13:01:42;;;;;;;17.43;15.97;;;;;;;25.67;42.50;94966.84;6203787;28;103157;-63
2022/05/31 13:04:53;;;;;;;16.47;15.07;;;;;;;25.68;42.36;94966.53;6209413;28;103231;-62
2022/05/31 13:08:14;;;;;;;15.07;13.83;;;;;;;25.69;41.89;94965.41;6204606;28;103200;-62
2022/05/31 13:21:32;;;;;;;13.97;12.77;;;;;;;25.68;41.60;94961.16;6199318;28;103336;-63
2022/05/31 13:25:01;;;;;;;14.00;12.80;;;;;;;25.69;41.55;94964.63;6207709;28;103137;-63
2022/05/31 13:28:05;;;;;;;13.50;12.40;;;;;;;25.69;41.65;94964.63;6212354;28;103151;-62
2022/05/31 13:31:15;;;;;;;13.00;12.00;;;;;;;25.69;41.23;94952.00;6204920;28;103656;-63
2022/05/31 13:34:36;;;;;;;11.40;10.60;;;;;;;25.69;41.25;94954.69;6212951;28;103188;-62
2022/05/31 13:37:57;;;;;;;10.20;9.37;;;;;;;25.67;40.46;94950.78;6213223;28;104197;-63
2022/05/31 13:41:04;;;;;;;11.17;10.13;;;;;;;25.69;40.86;94957.38;6213203;28;107300;-63
2022/05/31 13:44:08;;;;;;;12.20;11.23;;;;;;;25.66;41.13;94950.00;6203517;28;103945;-62
2022/05/31 13:47:17;;;;;;;11.40;10.43;;;;;;;25.67;40.81;94956.13;6205079;28;103048;-62
2022/05/31 13:50:24;;;;;;;9.40;8.70;;;;;;;25.66;41.29;94947.31;6188479;28;104055;-62
2022/05/31 13:53:35;;;;;;;8.93;8.23;;;;;;;25.66;40.51;94952.66;6182975;28;103448;-62
2022/05/31 13:56:47;;;;;;;7.47;6.97;;;;;;;25.66;39.93;94943.84;6182939;28;104168;-61
2022/05/31 13:59:52;;;;;;;7.10;6.47;;;;;;;25.66;39.76;94943.84;6187706;28;103095;-61
2022/05/31 14:03:06;;;;;;;8.23;7.37;;;;;;;25.66;40.09;94943.84;6187738;28;103149;-61
2022/05/31 14:06:11;;;;;;;7.67;6.00;;;;;;;25.64;39.64;94936.13;6176370;28;103036;-62
2022/05/31 14:09:17;;;;;;;6.97;6.37;;;;;;;25.64;39.75;94938.03;6187172;28;102972;-61
2022/05/31 14:12:23;;;;;;;6.87;6.27;;;;;;;25.63;39.74;94958.69;6187619;28;103306;-61
2022/05/31 14:15:31;;;;;;;7.57;6.90;;;;;;;25.63;40.09;94961.38;6186796;28;103241;-61
2022/05/31 14:18:41;;;;;;;7.60;5.83;;;;;;;25.61;39.36;94960.94;6177235;28;104938;-62
2022/05/31 14:21:46;;;;;;;6.30;5.80;;;;;;;25.62;39.82;94975.09;6187969;28;102817;-62
2022/05/31 14:24:52;;;;;;;6.70;6.10;;;;;;;25.60;39.74;94983.47;6186821;28;103179;-61
2022/05/31 14:27:56;;;;;;;6.27;5.77;;;;;;;25.60;39.77;95004.13;6175672;28;103079;-61
2022/05/31 14:31:00;;;;;;;6.80;6.20;;;;;;;25.58;39.89;95033.94;6186208;28;103062;-62
2022/05/31 14:34:10;;;;;;;6.87;6.27;;;;;;;25.57;39.83;95051.16;6186951;28;103079;-61
2022/05/31 14:37:26;;;;;;;6.57;6.07;;;;;;;25.55;40.36;95034.63;6186917;28;103727;-61
2022/05/31 14:40:32;;;;;;;9.20;6.87;;;;;;;25.47;42.03;95064.91;6190146;28;103520;-61
2022/05/31 14:43:49;;;;;;;8.33;7.00;;;;;;;25.45;41.94;95083.22;6206656;28;103224;-61
2022/05/31 14:47:06;;;;;;;8.03;7.03;;;;;;;25.41;42.29;95089.56;6211350;28;104191;-65
2022/05/31 14:50:27;;;;;;;8.77;8.00;;;;;;;25.12;46.07;95104.50;6206552;28;103289;-64
2022/05/31 14:53:37;;;;;;;10.90;7.40;;;;;;;25.00;46.54;95110.56;6208138;28;103123;-64
2022/05/31 14:56:42;;;;;;;12.00;10.10;;;;;;;25.16;46.08;95126.84;6211131;28;103440;-65